createdAt,value
2019-02-05T00:00:58.047Z,5.30
2019-02-05T00:03:26.482Z,5.30
2019-02-05T00:05:55.078Z,5.30
2019-02-05T00:08:23.579Z,5.40
2019-02-05T00:10:52.079Z,5.40
2019-02-05T00:13:20.593Z,5.40
2019-02-05T00:15:49.082Z,5.30
2019-02-05T00:18:17.532Z,5.30
2019-02-05T00:20:46.471Z,5.30
2019-02-05T00:23:14.982Z,5.30
2019-02-05T00:25:43.414Z,5.40
2019-02-05T00:28:12.139Z,5.50
2019-02-05T00:30:40.639Z,5.50
2019-02-05T00:33:09.102Z,5.40
2019-02-05T00:35:37.611Z,5.40
2019-02-05T00:38:06.196Z,5.40
2019-02-05T00:40:34.771Z,5.40
2019-02-05T00:43:09.384Z,5.30
2019-02-05T00:45:37.814Z,5.20
2019-02-05T00:48:06.397Z,5.20
2019-02-05T00:50:40.639Z,5.20
2019-02-05T00:53:09.091Z,5.20
2019-02-05T00:55:37.522Z,5.20
2019-02-05T00:58:06.093Z,5.20
2019-02-05T01:00:34.960Z,5.20
2019-02-05T01:03:05.432Z,5.20
2019-02-05T01:05:34.039Z,5.10
2019-02-05T01:08:02.480Z,5.10
2019-02-05T01:10:30.980Z,5.00
2019-02-05T01:12:59.493Z,5.10
2019-02-05T01:15:28.211Z,5.00
2019-02-05T01:17:56.784Z,5.00
2019-02-05T01:20:26.101Z,5.10
2019-02-05T01:22:54.536Z,5.00
2019-02-05T01:25:23.252Z,5.00
2019-02-05T01:27:52.104Z,5.00
2019-02-05T01:30:22.613Z,5.00
2019-02-05T01:32:51.215Z,5.10
2019-02-05T01:35:20.312Z,5.00
2019-02-05T01:37:48.819Z,5.00
2019-02-05T01:40:25.221Z,5.00
2019-02-05T01:42:53.968Z,5.00
2019-02-05T01:45:24.316Z,4.90
2019-02-05T01:47:52.921Z,4.80
2019-02-05T01:50:29.311Z,4.70
2019-02-05T01:53:08.499Z,4.60
2019-02-05T01:55:56.288Z,4.60
2019-02-05T01:58:24.717Z,4.50
2019-02-05T02:00:53.169Z,4.40
2019-02-05T02:03:22.071Z,4.40
2019-02-05T02:05:50.585Z,4.40
2019-02-05T02:08:19.087Z,4.40
2019-02-05T02:10:49.710Z,4.40
2019-02-05T02:13:18.216Z,4.40
2019-02-05T02:15:46.728Z,4.30
2019-02-05T02:18:15.171Z,4.30
2019-02-05T02:20:43.603Z,4.30
2019-02-05T02:23:12.047Z,4.30
2019-02-05T02:25:40.484Z,4.30
2019-02-05T02:28:09.004Z,4.30
2019-02-05T02:30:38.579Z,4.20
2019-02-05T02:33:07.541Z,4.20
2019-02-05T02:35:36.488Z,4.20
2019-02-05T02:38:05.490Z,4.20
2019-02-05T02:40:34.151Z,4.10
2019-02-05T02:43:02.680Z,4.10
2019-02-05T02:45:31.191Z,4.00
2019-02-05T02:48:00.209Z,4.00
2019-02-05T02:50:29.124Z,4.10
2019-02-05T02:52:57.642Z,4.00
2019-02-05T02:55:26.252Z,4.00
2019-02-05T02:57:54.704Z,4.10
2019-02-05T03:00:23.748Z,4.10
2019-02-05T03:02:52.415Z,4.10
2019-02-05T03:05:24.821Z,4.10
2019-02-05T03:07:53.506Z,4.10
2019-02-05T03:10:30.359Z,4.10
2019-02-05T03:12:59.053Z,4.10
2019-02-05T03:15:27.747Z,4.10
2019-02-05T03:17:56.336Z,4.10
2019-02-05T03:20:24.850Z,4.10
2019-02-05T03:22:53.781Z,4.10
2019-02-05T03:25:24.520Z,4.10
2019-02-05T03:27:54.304Z,4.10
2019-02-05T03:30:24.546Z,4.10
2019-02-05T03:32:55.099Z,4.10
2019-02-05T03:35:24.252Z,4.10
2019-02-05T03:38:12.091Z,4.10
2019-02-05T03:40:59.033Z,4.10
2019-02-05T03:43:27.561Z,4.10
2019-02-05T03:45:58.305Z,4.10
2019-02-05T03:48:27.546Z,4.10
2019-02-05T03:51:01.810Z,4.00
2019-02-05T03:53:40.075Z,4.00
2019-02-05T03:56:23.549Z,4.00
2019-02-05T03:59:11.852Z,4.00
2019-02-05T04:02:12.322Z,4.00
2019-02-05T04:05:00.243Z,4.00
2019-02-05T04:07:31.824Z,4.00
2019-02-05T04:10:21.694Z,4.00
2019-02-05T04:13:14.487Z,4.00
2019-02-05T04:15:58.176Z,4.00
2019-02-05T04:18:32.221Z,4.10
2019-02-05T04:21:03.815Z,4.10
2019-02-05T04:23:38.667Z,4.10
2019-02-05T04:26:25.039Z,4.20
2019-02-05T04:28:59.107Z,4.20
2019-02-05T04:31:36.211Z,4.20
2019-02-05T04:34:26.967Z,4.40
2019-02-05T04:37:04.068Z,4.40
2019-02-05T04:39:35.703Z,4.40
2019-02-05T04:42:13.497Z,4.30
2019-02-05T04:44:50.816Z,4.20
2019-02-05T04:47:53.388Z,4.20
2019-02-05T04:50:48.423Z,4.20
2019-02-05T04:53:20.000Z,4.20
2019-02-05T04:56:26.025Z,4.20
2019-02-05T04:59:03.501Z,4.20
2019-02-05T05:01:53.512Z,4.20
2019-02-05T05:04:46.319Z,4.20
2019-02-05T05:07:29.843Z,4.20
2019-02-05T05:09:59.138Z,4.30
2019-02-05T05:12:27.970Z,4.30
2019-02-05T05:15:08.804Z,4.40
2019-02-05T05:17:37.249Z,4.50
2019-02-05T05:20:08.861Z,4.40
2019-02-05T05:22:37.604Z,4.40
2019-02-05T05:25:09.275Z,4.40
2019-02-05T05:27:38.144Z,4.40
2019-02-05T05:30:12.393Z,4.40
2019-02-05T05:32:40.965Z,4.40
2019-02-05T05:35:10.132Z,4.40
2019-02-05T05:37:38.644Z,4.40
2019-02-05T05:40:09.003Z,4.40
2019-02-05T05:42:37.431Z,4.40
2019-02-05T05:45:08.959Z,4.40
2019-02-05T05:47:37.468Z,4.30
2019-02-05T05:50:08.972Z,4.30
2019-02-05T05:52:37.422Z,4.30
2019-02-05T05:55:07.171Z,4.30
2019-02-05T05:57:35.755Z,4.30
2019-02-05T06:00:07.410Z,4.40
2019-02-05T06:02:35.946Z,4.30
2019-02-05T06:05:06.796Z,4.40
2019-02-05T06:07:35.409Z,4.40
2019-02-05T06:10:07.336Z,4.30
2019-02-05T06:12:35.919Z,4.30
2019-02-05T06:15:06.983Z,4.30
2019-02-05T06:17:35.583Z,4.30
2019-02-05T06:20:07.208Z,4.40
2019-02-05T06:22:35.666Z,4.40
2019-02-05T06:25:05.452Z,4.50
2019-02-05T06:27:33.970Z,4.50
2019-02-05T06:30:02.550Z,4.40
2019-02-05T06:32:31.144Z,4.40
2019-02-05T06:34:59.652Z,4.40
2019-02-05T06:37:28.184Z,4.40
2019-02-05T06:39:56.693Z,4.30
2019-02-05T06:42:25.220Z,4.30
2019-02-05T06:44:53.795Z,4.30
2019-02-05T06:47:22.226Z,4.40
2019-02-05T06:49:50.747Z,4.40
2019-02-05T06:52:19.254Z,4.40
2019-02-05T06:54:47.743Z,4.40
2019-02-05T06:57:16.178Z,4.50
2019-02-05T06:59:44.715Z,4.50
2019-02-05T07:02:13.287Z,4.50
2019-02-05T07:04:41.742Z,4.50
2019-02-05T07:07:16.185Z,4.50
2019-02-05T07:09:44.707Z,4.50
2019-02-05T07:12:13.224Z,4.50
2019-02-05T07:14:54.475Z,4.50
2019-02-05T07:17:22.980Z,4.50
2019-02-05T07:19:51.507Z,4.40
2019-02-05T07:22:21.000Z,4.50
2019-02-05T07:24:49.523Z,4.50
2019-02-05T07:27:17.952Z,4.50
2019-02-05T07:29:46.475Z,4.50
2019-02-05T07:32:15.054Z,4.50
2019-02-05T07:34:43.576Z,4.50
2019-02-05T07:37:12.259Z,4.60
2019-02-05T07:39:40.795Z,4.60
2019-02-05T07:42:10.292Z,4.60
2019-02-05T07:44:40.097Z,4.70
2019-02-05T07:47:08.807Z,4.70
2019-02-05T07:49:38.601Z,4.70
2019-02-05T07:52:07.290Z,4.70
2019-02-05T07:54:35.804Z,4.80
2019-02-05T07:57:04.390Z,4.80
2019-02-05T07:59:32.897Z,4.70
2019-02-05T08:02:01.439Z,4.70
2019-02-05T08:04:29.951Z,4.60
2019-02-05T08:06:58.884Z,4.60
2019-02-05T08:09:46.806Z,4.50
2019-02-05T08:12:15.631Z,4.50
2019-02-05T08:14:44.139Z,4.60
2019-02-05T08:17:15.438Z,4.60
2019-02-05T08:19:43.959Z,4.60
2019-02-05T08:22:12.771Z,4.60
2019-02-05T08:24:41.275Z,4.60
2019-02-05T08:27:09.806Z,4.60
2019-02-05T08:29:38.320Z,4.70
2019-02-05T08:32:08.285Z,4.70
2019-02-05T08:34:36.795Z,4.70
2019-02-05T08:37:05.662Z,4.70
2019-02-05T08:39:34.648Z,4.80
2019-02-05T08:42:03.175Z,4.70
2019-02-05T08:44:31.691Z,4.70
2019-02-05T08:47:00.207Z,4.70
2019-02-05T08:49:28.720Z,4.80
2019-02-05T08:51:57.251Z,4.80
2019-02-05T08:54:25.703Z,4.80
2019-02-05T08:56:54.220Z,4.80
2019-02-05T08:59:22.727Z,4.80
2019-02-05T09:01:52.315Z,4.80
2019-02-05T09:04:20.824Z,4.70
2019-02-05T09:06:49.855Z,4.70
2019-02-05T09:09:18.284Z,4.70
2019-02-05T09:11:46.867Z,4.70
2019-02-05T09:14:15.460Z,4.60
2019-02-05T09:16:43.899Z,4.60
2019-02-05T09:19:12.428Z,4.60
2019-02-05T09:21:40.941Z,4.50
2019-02-05T09:24:09.541Z,4.60
2019-02-05T09:26:38.131Z,4.60
2019-02-05T09:29:06.660Z,4.70
2019-02-05T09:31:35.243Z,4.70
2019-02-05T09:34:23.307Z,4.70
2019-02-05T09:36:51.824Z,4.70
2019-02-05T09:39:20.355Z,4.80
2019-02-05T09:41:48.798Z,4.80
2019-02-05T09:44:17.340Z,4.90
2019-02-05T09:46:46.214Z,4.90
2019-02-05T09:49:14.752Z,5.00
2019-02-05T09:52:02.599Z,5.00
2019-02-05T09:54:37.029Z,5.00
2019-02-05T09:57:05.677Z,5.10
2019-02-05T09:59:44.917Z,5.10
2019-02-05T10:02:04.636Z,5.20
2019-02-05T10:04:33.227Z,5.30
2019-02-05T10:07:21.096Z,5.30
2019-02-05T10:09:49.623Z,5.30
2019-02-05T10:12:18.357Z,5.30
2019-02-05T10:14:49.927Z,5.40
2019-02-05T10:17:18.455Z,5.40
2019-02-05T10:19:46.974Z,5.40
2019-02-05T10:22:15.819Z,5.50
2019-02-05T10:24:44.471Z,5.50
2019-02-05T10:27:13.445Z,5.50
2019-02-05T10:29:41.963Z,5.50
2019-02-05T10:32:13.594Z,5.50
2019-02-05T10:34:42.085Z,5.50
2019-02-05T10:37:10.759Z,5.50
2019-02-05T10:39:39.394Z,5.50
2019-02-05T10:42:08.241Z,5.50
2019-02-05T10:44:36.929Z,5.50
2019-02-05T10:47:05.656Z,5.40
2019-02-05T10:49:34.158Z,5.40
2019-02-05T10:52:02.712Z,5.40
2019-02-05T10:54:31.307Z,5.40
2019-02-05T10:56:59.869Z,5.50
2019-02-05T10:59:28.319Z,5.50
2019-02-05T11:01:57.259Z,5.50
2019-02-05T11:04:25.855Z,5.50
2019-02-05T11:06:54.371Z,5.60
2019-02-05T11:09:22.964Z,5.50
2019-02-05T11:11:51.549Z,5.50
2019-02-05T11:14:20.091Z,5.50
2019-02-05T11:16:48.663Z,5.60
2019-02-05T11:19:17.604Z,5.60
2019-02-05T11:21:46.338Z,5.70
2019-02-05T11:24:14.888Z,5.80
2019-02-05T11:26:43.355Z,5.80
2019-02-05T11:29:11.865Z,5.90
2019-02-05T11:31:40.415Z,6.00
2019-02-05T11:34:13.799Z,6.00
2019-02-05T11:36:42.505Z,6.00
2019-02-05T11:39:17.660Z,6.00
2019-02-05T11:41:46.240Z,5.90
2019-02-05T11:44:14.881Z,5.90
2019-02-05T11:46:43.409Z,5.90
2019-02-05T11:49:11.979Z,5.90
2019-02-05T11:51:41.675Z,5.90
2019-02-05T11:54:10.184Z,5.80
2019-02-05T11:56:38.720Z,5.80
2019-02-05T11:59:07.231Z,6.00
2019-02-05T12:01:38.930Z,6.00
2019-02-05T12:04:06.242Z,6.00
2019-02-05T12:06:34.858Z,6.10
2019-02-05T12:09:05.224Z,6.20
2019-02-05T12:11:33.903Z,6.20
2019-02-05T12:14:02.525Z,6.30
2019-02-05T12:16:31.232Z,6.20
2019-02-05T12:18:59.765Z,6.20
2019-02-05T12:21:28.387Z,6.20
2019-02-05T12:23:56.999Z,6.20
2019-02-05T12:26:25.531Z,6.20
2019-02-05T12:28:54.212Z,6.20
2019-02-05T12:31:22.997Z,6.30
2019-02-05T12:33:51.551Z,6.30
2019-02-05T12:36:20.171Z,6.30
2019-02-05T12:38:48.753Z,6.40
2019-02-05T12:41:18.254Z,6.40
2019-02-05T12:43:46.903Z,6.40
2019-02-05T12:46:15.409Z,6.40
2019-02-05T12:48:43.949Z,6.50
2019-02-05T12:51:13.098Z,6.40
2019-02-05T12:53:41.835Z,6.50
2019-02-05T12:56:10.492Z,6.50
2019-02-05T12:58:39.030Z,6.40
2019-02-05T13:01:27.348Z,6.40
2019-02-05T13:03:56.124Z,6.30
2019-02-05T13:06:26.622Z,6.30
2019-02-05T13:08:55.247Z,6.30
2019-02-05T13:11:23.814Z,6.30
2019-02-05T13:13:52.486Z,6.30
2019-02-05T13:16:21.050Z,6.30
2019-02-05T13:18:51.936Z,6.30
2019-02-05T13:21:19.811Z,6.40
2019-02-05T13:23:48.277Z,6.40
2019-02-05T13:26:16.764Z,6.50
2019-02-05T13:28:45.355Z,6.50
2019-02-05T13:31:13.958Z,6.50
2019-02-05T13:33:43.295Z,6.60
2019-02-05T13:36:12.092Z,6.60
2019-02-05T13:38:40.686Z,6.60
2019-02-05T13:41:09.211Z,6.60
2019-02-05T13:43:37.936Z,6.70
2019-02-05T13:46:06.841Z,6.70
2019-02-05T13:48:35.353Z,6.70
2019-02-05T13:51:04.148Z,6.70
2019-02-05T13:53:32.689Z,6.70
2019-02-05T13:56:01.355Z,6.70
2019-02-05T13:58:30.232Z,6.80
2019-02-05T14:00:58.751Z,6.80
2019-02-05T14:03:27.181Z,6.80
2019-02-05T14:05:55.742Z,6.80
2019-02-05T14:08:24.251Z,6.90
2019-02-05T14:10:52.795Z,6.90
2019-02-05T14:13:21.275Z,6.90
2019-02-05T14:15:51.140Z,6.90
2019-02-05T14:18:31.400Z,6.90
2019-02-05T14:20:59.905Z,6.90
2019-02-05T14:23:28.356Z,6.90
2019-02-05T14:25:59.527Z,7.00
2019-02-05T14:28:27.082Z,7.00
2019-02-05T14:30:55.828Z,7.10
2019-02-05T14:33:24.418Z,7.10
2019-02-05T14:35:52.943Z,7.10
2019-02-05T14:38:21.633Z,7.10
2019-02-05T14:41:09.400Z,7.10
2019-02-05T14:43:37.851Z,7.10
2019-02-05T14:46:06.426Z,7.20
2019-02-05T14:48:34.939Z,7.30
2019-02-05T14:51:03.375Z,7.20
2019-02-05T14:53:31.832Z,7.30
2019-02-05T14:56:00.710Z,7.20
2019-02-05T14:58:29.240Z,7.20
2019-02-05T15:00:57.744Z,7.10
2019-02-05T15:03:26.224Z,7.20
2019-02-05T15:05:54.660Z,7.10
2019-02-05T15:08:23.193Z,7.10
2019-02-05T15:10:51.627Z,7.10
2019-02-05T15:13:20.129Z,7.10
2019-02-05T15:15:49.651Z,7.10
2019-02-05T15:18:18.327Z,7.00
2019-02-05T15:21:06.294Z,6.90
2019-02-05T15:23:36.079Z,7.00
2019-02-05T15:26:05.263Z,7.00
2019-02-05T15:28:33.699Z,7.00
2019-02-05T15:31:02.299Z,7.00
2019-02-05T15:33:32.453Z,7.00
2019-02-05T15:36:05.315Z,7.00
2019-02-05T15:38:33.913Z,7.00
2019-02-05T15:41:02.517Z,7.00
2019-02-05T15:43:31.023Z,7.00
2019-02-05T15:45:59.491Z,7.00
2019-02-05T15:48:28.051Z,7.00
2019-02-05T15:50:56.590Z,7.00
2019-02-05T15:53:44.739Z,6.90
2019-02-05T15:56:13.435Z,6.90
2019-02-05T15:58:41.868Z,6.90
2019-02-05T16:01:10.694Z,6.90
2019-02-05T16:03:39.215Z,6.90
2019-02-05T16:06:07.803Z,6.90
2019-02-05T16:08:36.247Z,6.80
2019-02-05T16:11:05.336Z,6.80
2019-02-05T16:13:33.773Z,6.90
2019-02-05T16:16:02.316Z,6.90
2019-02-05T16:18:30.770Z,6.80
2019-02-05T16:20:59.607Z,6.80
2019-02-05T16:23:28.183Z,6.80
2019-02-05T16:25:56.655Z,6.80
2019-02-05T16:28:25.108Z,6.80
2019-02-05T16:30:53.619Z,6.80
2019-02-05T16:33:22.096Z,6.80
2019-02-05T16:35:50.532Z,6.80
2019-02-05T16:38:19.386Z,6.70
2019-02-05T16:40:47.968Z,6.70
2019-02-05T16:43:37.027Z,6.60
2019-02-05T16:46:05.529Z,6.60
2019-02-05T16:48:35.023Z,6.50
2019-02-05T16:51:03.809Z,6.60
2019-02-05T16:53:32.327Z,6.60
2019-02-05T16:56:00.787Z,6.60
2019-02-05T16:58:29.319Z,6.50
2019-02-05T17:00:57.868Z,6.50
2019-02-05T17:03:26.321Z,6.50
2019-02-05T17:05:55.135Z,6.40
2019-02-05T17:08:23.808Z,6.30
2019-02-05T17:10:52.248Z,6.30
2019-02-05T17:13:20.852Z,6.30
2019-02-05T17:15:49.283Z,6.20
2019-02-05T17:18:23.669Z,6.20
2019-02-05T17:20:48.044Z,6.20
2019-02-05T17:23:16.502Z,6.20
2019-02-05T17:25:52.133Z,6.10
2019-02-05T17:28:20.580Z,6.10
2019-02-05T17:30:49.104Z,6.00
2019-02-05T17:33:18.612Z,6.00
2019-02-05T17:35:47.366Z,6.00
2019-02-05T17:38:17.891Z,5.90
2019-02-05T17:40:46.415Z,5.90
2019-02-05T17:43:34.188Z,5.90
2019-02-05T17:46:05.744Z,5.90
2019-02-05T17:48:33.235Z,5.80
2019-02-05T17:51:01.842Z,5.80
2019-02-05T17:53:30.362Z,5.80
2019-02-05T17:55:59.080Z,5.90
2019-02-05T17:58:27.532Z,5.90
2019-02-05T18:00:59.230Z,5.80
2019-02-05T18:03:27.677Z,5.80
2019-02-05T18:05:56.312Z,5.80
2019-02-05T18:08:24.772Z,5.80
2019-02-05T18:10:53.223Z,5.80
2019-02-05T18:13:21.745Z,5.80
2019-02-05T18:15:50.275Z,5.80
2019-02-05T18:18:19.000Z,5.80
2019-02-05T18:20:47.599Z,5.80
2019-02-05T18:23:16.101Z,5.90
2019-02-05T18:25:44.551Z,5.90
2019-02-05T18:28:13.154Z,6.00
2019-02-05T18:30:41.757Z,6.00
2019-02-05T18:33:10.640Z,6.00
2019-02-05T18:35:39.147Z,5.90
2019-02-05T18:38:10.916Z,5.90
2019-02-05T18:40:39.381Z,6.00
2019-02-05T18:43:08.259Z,6.00
2019-02-05T18:45:36.913Z,6.00
2019-02-05T18:48:06.278Z,6.00
2019-02-05T18:50:54.164Z,6.00
2019-02-05T18:53:22.720Z,6.00
2019-02-05T18:55:51.164Z,6.00
2019-02-05T18:58:20.464Z,6.00
2019-02-05T19:00:50.250Z,6.00
2019-02-05T19:03:19.168Z,6.00
2019-02-05T19:05:47.787Z,6.00
2019-02-05T19:08:16.927Z,6.00
2019-02-05T19:10:45.495Z,6.00
2019-02-05T19:13:14.085Z,6.00
2019-02-05T19:15:44.261Z,6.10
2019-02-05T19:18:13.744Z,6.10
2019-02-05T19:20:42.229Z,6.10
2019-02-05T19:23:11.121Z,6.20
2019-02-05T19:25:50.257Z,6.10
2019-02-05T19:28:24.472Z,6.10
2019-02-05T19:30:54.643Z,6.10
2019-02-05T19:33:27.230Z,6.10
2019-02-05T19:35:56.818Z,6.00
2019-02-05T19:38:25.671Z,6.00
2019-02-05T19:41:13.535Z,6.00
2019-02-05T19:43:41.971Z,6.00
2019-02-05T19:46:14.969Z,6.00
2019-02-05T19:48:48.923Z,6.00
2019-02-05T19:51:16.643Z,6.00
2019-02-05T19:53:47.681Z,5.90
2019-02-05T19:56:17.846Z,5.90
2019-02-05T19:58:46.381Z,5.90
2019-02-05T20:01:41.953Z,5.80
2019-02-05T20:04:10.912Z,5.70
2019-02-05T20:06:40.256Z,5.70
2019-02-05T20:09:12.793Z,5.70
2019-02-05T20:11:41.417Z,5.60
2019-02-05T20:14:10.000Z,5.60
2019-02-05T20:16:38.591Z,5.60
2019-02-05T20:19:07.176Z,5.60
2019-02-05T20:21:35.788Z,5.50
2019-02-05T20:24:05.558Z,5.50
2019-02-05T20:26:34.084Z,5.50
2019-02-05T20:29:02.587Z,5.50
2019-02-05T20:31:32.755Z,5.40
2019-02-05T20:34:01.556Z,5.40
2019-02-05T20:36:30.173Z,5.40
2019-02-05T20:38:59.050Z,5.40
2019-02-05T20:41:28.557Z,5.40
2019-02-05T20:43:57.119Z,5.40
2019-02-05T20:46:26.225Z,5.40
2019-02-05T20:48:54.979Z,5.40
2019-02-05T20:51:23.730Z,5.40
2019-02-05T20:53:56.619Z,5.40
2019-02-05T20:56:25.447Z,5.40
2019-02-05T20:58:55.057Z,5.40
2019-02-05T21:01:23.657Z,5.40
2019-02-05T21:04:00.964Z,5.40
2019-02-05T21:06:22.457Z,5.40
2019-02-05T21:08:51.097Z,5.30
2019-02-05T21:11:25.443Z,5.30
2019-02-05T21:13:53.992Z,5.30
2019-02-05T21:16:22.599Z,5.30
2019-02-05T21:18:51.167Z,5.20
2019-02-05T21:21:19.624Z,5.10
2019-02-05T21:23:48.392Z,5.10
2019-02-05T21:26:16.904Z,5.10
2019-02-05T21:28:45.736Z,5.00
2019-02-05T21:31:14.202Z,4.90
2019-02-05T21:33:42.736Z,4.90
2019-02-05T21:36:11.329Z,4.90
2019-02-05T21:38:39.821Z,4.80
2019-02-05T21:41:08.342Z,4.80
2019-02-05T21:43:36.993Z,4.80
2019-02-05T21:46:05.802Z,4.80
2019-02-05T21:48:34.359Z,4.70
2019-02-05T21:51:02.826Z,4.70
2019-02-05T21:53:31.362Z,4.70
2019-02-05T21:55:59.927Z,4.70
2019-02-05T21:58:28.448Z,4.60
2019-02-05T22:00:57.021Z,4.60
2019-02-05T22:03:25.724Z,4.60
2019-02-05T22:05:54.717Z,4.60
2019-02-05T22:08:23.247Z,4.60
2019-02-05T22:10:51.858Z,4.60
2019-02-05T22:13:20.431Z,4.60
2019-02-05T22:15:48.955Z,4.60
2019-02-05T22:18:18.468Z,4.60
2019-02-05T22:20:49.906Z,4.60
2019-02-05T22:23:18.749Z,4.50
2019-02-05T22:25:47.310Z,4.50
2019-02-05T22:28:15.818Z,4.50
2019-02-05T22:30:44.754Z,4.40
2019-02-05T22:33:13.259Z,4.40
2019-02-05T22:35:41.865Z,4.40
2019-02-05T22:38:10.384Z,4.40
2019-02-05T22:40:38.930Z,4.40
2019-02-05T22:43:07.920Z,4.30
2019-02-05T22:45:36.437Z,4.30
2019-02-05T22:48:06.919Z,4.30
2019-02-05T22:50:37.083Z,4.20
2019-02-05T22:53:12.659Z,4.20
2019-02-05T22:55:41.258Z,4.20
2019-02-05T22:58:10.122Z,4.20
2019-02-05T23:00:48.308Z,4.10
2019-02-05T23:03:19.043Z,4.10
2019-02-05T23:05:56.832Z,4.10
2019-02-05T23:08:44.704Z,4.10
2019-02-05T23:11:27.991Z,4.10
2019-02-05T23:13:56.539Z,4.20
2019-02-05T23:16:25.064Z,4.10
2019-02-05T23:18:53.588Z,4.20
2019-02-05T23:21:22.108Z,4.20
2019-02-05T23:23:50.731Z,4.20
2019-02-05T23:26:19.272Z,4.30
2019-02-05T23:28:47.760Z,4.20
2019-02-05T23:31:35.633Z,4.30
2019-02-05T23:34:04.164Z,4.30
2019-02-05T23:36:32.608Z,4.30
2019-02-05T23:39:01.123Z,4.30
2019-02-05T23:41:29.600Z,4.20
2019-02-05T23:43:58.188Z,4.20
2019-02-05T23:46:26.675Z,4.20
2019-02-05T23:48:55.187Z,4.20
2019-02-05T23:51:23.648Z,4.10
2019-02-05T23:53:52.470Z,4.10
2019-02-05T23:56:25.653Z,4.10
2019-02-05T23:58:51.256Z,4.10
